sensor_id;sensor_type;location;lat;lon;timestamp;pressure;altitude;pressure_sealevel;temperature;humidity
62055;BME280;48653;51.742;-1.256;2023-03-31T00:01:52;98558.54;;;9.56;64.69
62055;BME280;48653;51.742;-1.256;2023-03-31T00:04:18;98553.20;;;9.72;64.95
62055;BME280;48653;51.742;-1.256;2023-03-31T00:06:43;98543.68;;;9.22;65.27
62055;BME280;48653;51.742;-1.256;2023-03-31T00:09:10;98532.86;;;9.80;64.58
62055;BME280;48653;51.742;-1.256;2023-03-31T00:11:34;98520.28;;;9.75;64.62
62055;BME280;48653;51.742;-1.256;2023-03-31T00:13:59;98512.52;;;10.32;62.57
62055;BME280;48653;51.742;-1.256;2023-03-31T00:16:24;98498.37;;;10.25;62.61
62055;BME280;48653;51.742;-1.256;2023-03-31T00:18:49;98485.67;;;10.15;63.04
62055;BME280;48653;51.742;-1.256;2023-03-31T00:21:17;98466.87;;;10.37;61.89
62055;BME280;48653;51.742;-1.256;2023-03-31T00:23:40;98458.02;;;10.72;60.88
62055;BME280;48653;51.742;-1.256;2023-03-31T00:26:05;98454.02;;;10.40;62.04
62055;BME280;48653;51.742;-1.256;2023-03-31T00:28:30;98442.02;;;10.41;61.91
62055;BME280;48653;51.742;-1.256;2023-03-31T00:30:59;98440.31;;;9.91;62.99
62055;BME280;48653;51.742;-1.256;2023-03-31T00:33:20;98428.14;;;10.20;62.79
62055;BME280;48653;51.742;-1.256;2023-03-31T00:35:50;98420.00;;;10.39;62.16
62055;BME280;48653;51.742;-1.256;2023-03-31T00:38:10;98411.92;;;9.83;63.36
62055;BME280;48653;51.742;-1.256;2023-03-31T00:40:35;98402.88;;;9.59;64.13
62055;BME280;48653;51.742;-1.256;2023-03-31T00:43:01;98394.51;;;10.51;62.74
62055;BME280;48653;51.742;-1.256;2023-03-31T00:45:28;98385.93;;;10.39;62.28
62055;BME280;48653;51.742;-1.256;2023-03-31T00:47:54;98379.92;;;10.38;62.49
62055;BME280;48653;51.742;-1.256;2023-03-31T00:50:20;98372.34;;;10.05;63.34
62055;BME280;48653;51.742;-1.256;2023-03-31T00:52:42;98357.69;;;10.03;63.27
62055;BME280;48653;51.742;-1.256;2023-03-31T00:55:10;98349.66;;;10.34;63.63
62055;BME280;48653;51.742;-1.256;2023-03-31T00:57:33;98342.33;;;9.78;64.09
62055;BME280;48653;51.742;-1.256;2023-03-31T01:00:04;98333.25;;;10.35;62.57
62055;BME280;48653;51.742;-1.256;2023-03-31T01:02:23;98329.34;;;10.52;62.71
62055;BME280;48653;51.742;-1.256;2023-03-31T01:04:50;98321.16;;;10.86;61.62
62055;BME280;48653;51.742;-1.256;2023-03-31T01:07:17;98310.66;;;10.49;62.45
62055;BME280;48653;51.742;-1.256;2023-03-31T01:09:37;98304.23;;;10.12;63.05
62055;BME280;48653;51.742;-1.256;2023-03-31T01:12:06;98294.66;;;10.62;62.01
62055;BME280;48653;51.742;-1.256;2023-03-31T01:14:29;98282.87;;;10.00;63.51
62055;BME280;48653;51.742;-1.256;2023-03-31T01:16:53;98277.17;;;9.67;64.57
62055;BME280;48653;51.742;-1.256;2023-03-31T01:19:26;98270.16;;;10.39;63.61
62055;BME280;48653;51.742;-1.256;2023-03-31T01:21:58;98261.41;;;10.33;63.09
62055;BME280;48653;51.742;-1.256;2023-03-31T01:26:44;98246.01;;;10.48;62.87
62055;BME280;48653;51.742;-1.256;2023-03-31T01:29:05;98238.82;;;10.45;62.85
62055;BME280;48653;51.742;-1.256;2023-03-31T01:31:48;98226.38;;;10.23;62.58
62055;BME280;48653;51.742;-1.256;2023-03-31T01:36:26;98211.69;;;10.47;62.46
62055;BME280;48653;51.742;-1.256;2023-03-31T01:41:19;98195.61;;;10.04;63.58
62055;BME280;48653;51.742;-1.256;2023-03-31T01:43:35;98188.86;;;9.80;64.11
62055;BME280;48653;51.742;-1.256;2023-03-31T01:46:00;98175.67;;;9.89;63.91
62055;BME280;48653;51.742;-1.256;2023-03-31T01:48:29;98166.11;;;10.40;62.93
62055;BME280;48653;51.742;-1.256;2023-03-31T01:50:52;98152.82;;;9.96;63.89
62055;BME280;48653;51.742;-1.256;2023-03-31T01:53:17;98146.73;;;9.66;64.73
62055;BME280;48653;51.742;-1.256;2023-03-31T01:55:41;98142.46;;;10.22;63.48
62055;BME280;48653;51.742;-1.256;2023-03-31T01:58:08;98130.44;;;10.34;63.10
62055;BME280;48653;51.742;-1.256;2023-03-31T02:00:30;98121.89;;;10.21;63.52
62055;BME280;48653;51.742;-1.256;2023-03-31T02:02:56;98115.53;;;9.97;63.45
62055;BME280;48653;51.742;-1.256;2023-03-31T02:05:21;98106.30;;;10.44;62.26
62055;BME280;48653;51.742;-1.256;2023-03-31T02:07:47;98098.60;;;9.94;63.19
62055;BME280;48653;51.742;-1.256;2023-03-31T02:10:11;98088.59;;;9.83;65.85
62055;BME280;48653;51.742;-1.256;2023-03-31T02:12:35;98085.14;;;9.26;67.16
62055;BME280;48653;51.742;-1.256;2023-03-31T02:15:00;98073.07;;;9.39;66.33
62055;BME280;48653;51.742;-1.256;2023-03-31T02:17:26;98072.98;;;9.59;66.12
62055;BME280;48653;51.742;-1.256;2023-03-31T02:19:51;98057.53;;;10.22;64.37
62055;BME280;48653;51.742;-1.256;2023-03-31T02:22:16;98052.40;;;9.22;65.88
62055;BME280;48653;51.742;-1.256;2023-03-31T02:24:40;98044.83;;;9.76;65.21
62055;BME280;48653;51.742;-1.256;2023-03-31T02:27:08;98040.24;;;9.73;64.67
62055;BME280;48653;51.742;-1.256;2023-03-31T02:29:30;98032.19;;;9.63;64.44
62055;BME280;48653;51.742;-1.256;2023-03-31T02:31:59;98024.67;;;9.92;63.13
62055;BME280;48653;51.742;-1.256;2023-03-31T02:34:25;98018.87;;;10.52;62.23
62055;BME280;48653;51.742;-1.256;2023-03-31T02:36:45;98008.62;;;11.05;60.97
62055;BME280;48653;51.742;-1.256;2023-03-31T02:39:12;98002.92;;;10.72;61.59
62055;BME280;48653;51.742;-1.256;2023-03-31T02:41:36;97991.70;;;10.03;63.04
62055;BME280;48653;51.742;-1.256;2023-03-31T02:44:00;97987.15;;;10.03;63.17
62055;BME280;48653;51.742;-1.256;2023-03-31T02:46:26;97980.36;;;9.81;63.86
62055;BME280;48653;51.742;-1.256;2023-03-31T02:48:54;97970.35;;;10.33;62.77
62055;BME280;48653;51.742;-1.256;2023-03-31T02:51:31;97960.08;;;10.50;61.56
62055;BME280;48653;51.742;-1.256;2023-03-31T02:53:51;97954.22;;;10.17;62.12
62055;BME280;48653;51.742;-1.256;2023-03-31T02:56:20;97945.90;;;10.86;60.74
62055;BME280;48653;51.742;-1.256;2023-03-31T02:58:40;97935.92;;;10.53;61.32
62055;BME280;48653;51.742;-1.256;2023-03-31T03:01:07;97931.37;;;10.44;62.41
62055;BME280;48653;51.742;-1.256;2023-03-31T03:03:31;97921.44;;;10.16;63.10
62055;BME280;48653;51.742;-1.256;2023-03-31T03:05:52;97915.62;;;9.70;63.67
62055;BME280;48653;51.742;-1.256;2023-03-31T03:08:19;97906.19;;;10.32;62.81
62055;BME280;48653;51.742;-1.256;2023-03-31T03:10:44;97902.53;;;10.21;62.20
62055;BME280;48653;51.742;-1.256;2023-03-31T03:13:08;97888.68;;;10.34;62.76
62055;BME280;48653;51.742;-1.256;2023-03-31T03:15:31;97879.33;;;9.96;62.92
62055;BME280;48653;51.742;-1.256;2023-03-31T03:17:54;97876.70;;;10.30;62.46
62055;BME280;48653;51.742;-1.256;2023-03-31T03:20:20;97870.21;;;9.85;63.82
62055;BME280;48653;51.742;-1.256;2023-03-31T03:22:44;97865.82;;;10.06;63.12
62055;BME280;48653;51.742;-1.256;2023-03-31T03:25:11;97861.08;;;10.31;62.32
62055;BME280;48653;51.742;-1.256;2023-03-31T03:27:35;97855.41;;;9.36;64.38
62055;BME280;48653;51.742;-1.256;2023-03-31T03:29:59;97851.57;;;9.91;63.92
62055;BME280;48653;51.742;-1.256;2023-03-31T03:32:25;97846.31;;;9.41;65.44
62055;BME280;48653;51.742;-1.256;2023-03-31T03:34:50;97845.70;;;9.76;63.83
62055;BME280;48653;51.742;-1.256;2023-03-31T03:37:16;97843.06;;;9.93;64.06
62055;BME280;48653;51.742;-1.256;2023-03-31T03:39:41;97836.84;;;9.66;65.07
62055;BME280;48653;51.742;-1.256;2023-03-31T03:42:06;97832.41;;;10.35;63.84
62055;BME280;48653;51.742;-1.256;2023-03-31T03:44:32;97825.91;;;10.03;62.46
62055;BME280;48653;51.742;-1.256;2023-03-31T03:46:57;97817.38;;;10.41;62.90
62055;BME280;48653;51.742;-1.256;2023-03-31T03:49:22;97808.15;;;10.59;61.28
62055;BME280;48653;51.742;-1.256;2023-03-31T03:51:47;97803.46;;;11.21;60.14
62055;BME280;48653;51.742;-1.256;2023-03-31T03:54:12;97794.53;;;10.43;61.06
62055;BME280;48653;51.742;-1.256;2023-03-31T03:56:38;97788.11;;;10.66;61.36
62055;BME280;48653;51.742;-1.256;2023-03-31T03:59:03;97781.06;;;10.30;62.04
62055;BME280;48653;51.742;-1.256;2023-03-31T04:01:28;97773.87;;;10.22;62.42
62055;BME280;48653;51.742;-1.256;2023-03-31T04:03:54;97767.69;;;10.58;60.90
62055;BME280;48653;51.742;-1.256;2023-03-31T04:06:19;97766.46;;;11.26;59.88
62055;BME280;48653;51.742;-1.256;2023-03-31T04:08:44;97759.36;;;10.52;61.14
62055;BME280;48653;51.742;-1.256;2023-03-31T04:11:12;97757.16;;;10.43;61.33
62055;BME280;48653;51.742;-1.256;2023-03-31T04:13:34;97751.59;;;10.11;62.69
62055;BME280;48653;51.742;-1.256;2023-03-31T04:15:59;97755.32;;;9.61;63.77
62055;BME280;48653;51.742;-1.256;2023-03-31T04:18:25;97746.50;;;9.72;63.60
62055;BME280;48653;51.742;-1.256;2023-03-31T04:20:50;97740.16;;;9.93;63.31
62055;BME280;48653;51.742;-1.256;2023-03-31T04:23:15;97734.86;;;10.36;62.03
62055;BME280;48653;51.742;-1.256;2023-03-31T04:25:40;97728.28;;;10.40;62.13
62055;BME280;48653;51.742;-1.256;2023-03-31T04:28:05;97718.68;;;10.27;62.13
62055;BME280;48653;51.742;-1.256;2023-03-31T04:30:30;97715.93;;;10.61;60.79
62055;BME280;48653;51.742;-1.256;2023-03-31T04:32:57;97710.76;;;10.62;60.52
62055;BME280;48653;51.742;-1.256;2023-03-31T04:35:22;97709.40;;;10.19;62.14
62055;BME280;48653;51.742;-1.256;2023-03-31T04:37:46;97703.08;;;10.48;61.14
62055;BME280;48653;51.742;-1.256;2023-03-31T04:40:11;97699.14;;;10.64;61.37
62055;BME280;48653;51.742;-1.256;2023-03-31T04:42:36;97695.35;;;10.05;62.19
62055;BME280;48653;51.742;-1.256;2023-03-31T04:45:01;97689.79;;;10.47;61.61
62055;BME280;48653;51.742;-1.256;2023-03-31T04:47:26;97683.67;;;10.53;61.39
62055;BME280;48653;51.742;-1.256;2023-03-31T04:49:51;97684.37;;;10.03;62.52
62055;BME280;48653;51.742;-1.256;2023-03-31T04:52:16;97677.36;;;10.69;60.55
62055;BME280;48653;51.742;-1.256;2023-03-31T04:54:41;97674.32;;;10.38;61.88
62055;BME280;48653;51.742;-1.256;2023-03-31T04:57:07;97669.05;;;9.50;63.48
62055;BME280;48653;51.742;-1.256;2023-03-31T04:59:32;97669.14;;;9.68;63.17
62055;BME280;48653;51.742;-1.256;2023-03-31T05:01:57;97663.82;;;9.36;64.22
62055;BME280;48653;51.742;-1.256;2023-03-31T05:04:22;97660.10;;;10.12;62.56
62055;BME280;48653;51.742;-1.256;2023-03-31T05:06:47;97650.02;;;10.16;62.26
62055;BME280;48653;51.742;-1.256;2023-03-31T05:09:12;97646.50;;;10.57;61.22
62055;BME280;48653;51.742;-1.256;2023-03-31T05:11:37;97648.93;;;9.59;63.16
62055;BME280;48653;51.742;-1.256;2023-03-31T05:14:03;97641.72;;;9.96;63.03
62055;BME280;48653;51.742;-1.256;2023-03-31T05:16:28;97640.10;;;10.26;62.03
62055;BME280;48653;51.742;-1.256;2023-03-31T05:18:53;97632.21;;;10.89;60.68
62055;BME280;48653;51.742;-1.256;2023-03-31T05:21:19;97634.57;;;10.42;61.25
62055;BME280;48653;51.742;-1.256;2023-03-31T05:23:44;97638.14;;;10.23;61.94
62055;BME280;48653;51.742;-1.256;2023-03-31T05:26:08;97636.26;;;10.02;62.71
62055;BME280;48653;51.742;-1.256;2023-03-31T05:28:34;97632.24;;;10.07;62.95
62055;BME280;48653;51.742;-1.256;2023-03-31T05:30:59;97634.68;;;10.04;62.80
62055;BME280;48653;51.742;-1.256;2023-03-31T05:33:24;97632.04;;;9.89;63.03
62055;BME280;48653;51.742;-1.256;2023-03-31T05:35:50;97633.39;;;10.10;62.55
62055;BME280;48653;51.742;-1.256;2023-03-31T05:38:15;97635.64;;;9.53;64.07
62055;BME280;48653;51.742;-1.256;2023-03-31T05:40:40;97635.75;;;9.49;64.28
62055;BME280;48653;51.742;-1.256;2023-03-31T05:43:05;97637.28;;;10.00;62.58
62055;BME280;48653;51.742;-1.256;2023-03-31T05:45:30;97635.05;;;10.05;63.16
62055;BME280;48653;51.742;-1.256;2023-03-31T05:47:55;97631.56;;;10.32;62.13
62055;BME280;48653;51.742;-1.256;2023-03-31T05:50:20;97629.83;;;10.01;63.22
62055;BME280;48653;51.742;-1.256;2023-03-31T05:52:45;97631.67;;;9.81;63.32
62055;BME280;48653;51.742;-1.256;2023-03-31T05:55:10;97620.64;;;10.13;62.70
62055;BME280;48653;51.742;-1.256;2023-03-31T05:57:35;97621.27;;;9.32;63.90
62055;BME280;48653;51.742;-1.256;2023-03-31T06:00:01;97616.96;;;10.24;62.42
62055;BME280;48653;51.742;-1.256;2023-03-31T06:02:26;97616.97;;;9.77;63.77
62055;BME280;48653;51.742;-1.256;2023-03-31T06:04:51;97616.23;;;9.90;62.37
62055;BME280;48653;51.742;-1.256;2023-03-31T06:07:16;97611.35;;;9.94;63.14
62055;BME280;48653;51.742;-1.256;2023-03-31T06:09:41;97612.63;;;10.07;62.74
62055;BME280;48653;51.742;-1.256;2023-03-31T06:12:06;97608.54;;;10.03;62.23
62055;BME280;48653;51.742;-1.256;2023-03-31T06:14:31;97607.08;;;10.26;61.92
62055;BME280;48653;51.742;-1.256;2023-03-31T06:16:56;97604.67;;;10.43;61.53
62055;BME280;48653;51.742;-1.256;2023-03-31T06:19:21;97600.77;;;10.22;61.90
62055;BME280;48653;51.742;-1.256;2023-03-31T06:21:46;97596.02;;;10.63;61.17
62055;BME280;48653;51.742;-1.256;2023-03-31T06:24:11;97601.80;;;10.68;61.06
62055;BME280;48653;51.742;-1.256;2023-03-31T06:26:36;97599.02;;;10.50;61.01
62055;BME280;48653;51.742;-1.256;2023-03-31T06:29:02;97598.49;;;10.83;60.77
62055;BME280;48653;51.742;-1.256;2023-03-31T06:31:27;97595.81;;;10.32;61.25
62055;BME280;48653;51.742;-1.256;2023-03-31T06:33:53;97595.21;;;10.68;60.73
62055;BME280;48653;51.742;-1.256;2023-03-31T06:36:20;97597.97;;;10.75;61.35
62055;BME280;48653;51.742;-1.256;2023-03-31T06:38:45;97595.14;;;10.54;61.43
62055;BME280;48653;51.742;-1.256;2023-03-31T06:41:12;97600.93;;;9.84;63.63
62055;BME280;48653;51.742;-1.256;2023-03-31T06:43:34;97593.05;;;10.81;61.32
62055;BME280;48653;51.742;-1.256;2023-03-31T06:46:00;97592.01;;;10.33;61.73
62055;BME280;48653;51.742;-1.256;2023-03-31T06:48:25;97598.53;;;10.41;62.16
62055;BME280;48653;51.742;-1.256;2023-03-31T06:50:51;97595.05;;;10.24;63.00
62055;BME280;48653;51.742;-1.256;2023-03-31T06:53:15;97597.99;;;10.71;61.90
62055;BME280;48653;51.742;-1.256;2023-03-31T06:55:40;97593.07;;;10.81;61.29
62055;BME280;48653;51.742;-1.256;2023-03-31T06:58:05;97594.74;;;10.71;60.92
62055;BME280;48653;51.742;-1.256;2023-03-31T07:00:31;97595.05;;;11.26;59.95
62055;BME280;48653;51.742;-1.256;2023-03-31T07:02:55;97594.80;;;10.70;61.54
62055;BME280;48653;51.742;-1.256;2023-03-31T07:05:20;97595.36;;;10.71;61.67
62055;BME280;48653;51.742;-1.256;2023-03-31T07:07:45;97592.72;;;10.41;61.82
62055;BME280;48653;51.742;-1.256;2023-03-31T07:10:10;97590.68;;;9.99;63.71
62055;BME280;48653;51.742;-1.256;2023-03-31T07:12:35;97591.02;;;10.04;62.77
62055;BME280;48653;51.742;-1.256;2023-03-31T07:15:00;97588.74;;;11.18;60.85
62055;BME280;48653;51.742;-1.256;2023-03-31T07:17:25;97588.55;;;10.34;62.67
62055;BME280;48653;51.742;-1.256;2023-03-31T07:19:51;97587.55;;;10.58;62.58
62055;BME280;48653;51.742;-1.256;2023-03-31T07:22:17;97584.75;;;10.35;62.70
62055;BME280;48653;51.742;-1.256;2023-03-31T07:24:42;97584.03;;;10.81;61.85
62055;BME280;48653;51.742;-1.256;2023-03-31T07:27:08;97582.95;;;10.33;62.90
62055;BME280;48653;51.742;-1.256;2023-03-31T07:29:33;97581.54;;;11.10;61.08
62055;BME280;48653;51.742;-1.256;2023-03-31T07:31:58;97580.60;;;11.14;60.48
62055;BME280;48653;51.742;-1.256;2023-03-31T07:34:24;97576.54;;;10.95;61.82
62055;BME280;48653;51.742;-1.256;2023-03-31T07:36:49;97581.53;;;10.10;63.29
62055;BME280;48653;51.742;-1.256;2023-03-31T07:39:14;97575.64;;;10.36;63.52
62055;BME280;48653;51.742;-1.256;2023-03-31T07:41:39;97577.90;;;11.03;61.74
62055;BME280;48653;51.742;-1.256;2023-03-31T07:44:04;97575.05;;;9.90;64.42
62055;BME280;48653;51.742;-1.256;2023-03-31T07:46:29;97573.06;;;11.37;61.33
62055;BME280;48653;51.742;-1.256;2023-03-31T07:48:55;97576.26;;;10.63;62.28
62055;BME280;48653;51.742;-1.256;2023-03-31T07:51:22;97571.70;;;10.91;62.85
62055;BME280;48653;51.742;-1.256;2023-03-31T07:53:46;97569.88;;;10.65;62.16
62055;BME280;48653;51.742;-1.256;2023-03-31T07:56:11;97570.90;;;11.07;60.85
62055;BME280;48653;51.742;-1.256;2023-03-31T07:58:35;97571.48;;;10.81;61.82
62055;BME280;48653;51.742;-1.256;2023-03-31T08:01:01;97568.49;;;10.65;62.63
62055;BME280;48653;51.742;-1.256;2023-03-31T08:03:26;97569.90;;;11.04;61.88
62055;BME280;48653;51.742;-1.256;2023-03-31T08:05:51;97565.24;;;11.21;61.21
62055;BME280;48653;51.742;-1.256;2023-03-31T08:08:16;97564.36;;;10.93;62.50
62055;BME280;48653;51.742;-1.256;2023-03-31T08:10:41;97568.49;;;9.93;64.73
62055;BME280;48653;51.742;-1.256;2023-03-31T08:13:06;97568.23;;;10.59;63.67
62055;BME280;48653;51.742;-1.256;2023-03-31T08:15:31;97563.05;;;11.01;62.85
62055;BME280;48653;51.742;-1.256;2023-03-31T08:17:56;97559.51;;;10.52;63.38
62055;BME280;48653;51.742;-1.256;2023-03-31T08:20:21;97557.11;;;11.02;62.78
62055;BME280;48653;51.742;-1.256;2023-03-31T08:22:47;97554.04;;;10.89;62.52
62055;BME280;48653;51.742;-1.256;2023-03-31T08:25:12;97548.96;;;10.37;63.11
62055;BME280;48653;51.742;-1.256;2023-03-31T08:27:39;97549.50;;;10.93;62.73
62055;BME280;48653;51.742;-1.256;2023-03-31T08:30:03;97546.04;;;10.87;62.64
62055;BME280;48653;51.742;-1.256;2023-03-31T08:32:27;97539.72;;;10.30;63.88
62055;BME280;48653;51.742;-1.256;2023-03-31T08:34:52;97539.85;;;10.56;63.65
62055;BME280;48653;51.742;-1.256;2023-03-31T08:37:17;97528.95;;;10.58;63.66
62055;BME280;48653;51.742;-1.256;2023-03-31T08:39:42;97532.36;;;11.05;63.12
62055;BME280;48653;51.742;-1.256;2023-03-31T08:42:12;97536.36;;;10.90;62.16
62055;BME280;48653;51.742;-1.256;2023-03-31T08:44:35;97530.36;;;10.43;63.09
62055;BME280;48653;51.742;-1.256;2023-03-31T08:46:59;97528.98;;;10.56;63.96
62055;BME280;48653;51.742;-1.256;2023-03-31T08:49:23;97532.43;;;10.14;64.46
62055;BME280;48653;51.742;-1.256;2023-03-31T08:51:50;97533.81;;;9.78;65.73
62055;BME280;48653;51.742;-1.256;2023-03-31T08:54:16;97539.35;;;9.57;66.35
62055;BME280;48653;51.742;-1.256;2023-03-31T08:56:41;97542.83;;;10.04;65.12
62055;BME280;48653;51.742;-1.256;2023-03-31T08:59:03;97545.26;;;9.90;66.28
62055;BME280;48653;51.742;-1.256;2023-03-31T09:01:35;97552.02;;;10.60;64.81
62055;BME280;48653;51.742;-1.256;2023-03-31T09:04:12;97553.90;;;10.29;65.28
62055;BME280;48653;51.742;-1.256;2023-03-31T09:06:21;97558.61;;;10.42;65.14
62055;BME280;48653;51.742;-1.256;2023-03-31T09:08:43;97558.36;;;10.45;64.74
62055;BME280;48653;51.742;-1.256;2023-03-31T09:11:12;97562.43;;;10.64;64.64
62055;BME280;48653;51.742;-1.256;2023-03-31T09:13:49;97567.71;;;10.99;64.65
62055;BME280;48653;51.742;-1.256;2023-03-31T09:16:02;97574.02;;;9.96;66.92
62055;BME280;48653;51.742;-1.256;2023-03-31T09:18:28;97580.95;;;9.98;67.30
62055;BME280;48653;51.742;-1.256;2023-03-31T09:20:51;97582.62;;;10.35;67.01
62055;BME280;48653;51.742;-1.256;2023-03-31T09:23:21;97589.89;;;10.50;66.41
62055;BME280;48653;51.742;-1.256;2023-03-31T09:25:40;97597.07;;;10.59;67.12
62055;BME280;48653;51.742;-1.256;2023-03-31T09:28:13;97604.19;;;10.66;67.03
62055;BME280;48653;51.742;-1.256;2023-03-31T09:30:30;97608.10;;;10.66;67.21
62055;BME280;48653;51.742;-1.256;2023-03-31T09:33:03;97613.60;;;10.60;68.73
62055;BME280;48653;51.742;-1.256;2023-03-31T09:35:22;97624.18;;;10.22;68.87
62055;BME280;48653;51.742;-1.256;2023-03-31T09:37:44;97624.09;;;10.52;67.10
62055;BME280;48653;51.742;-1.256;2023-03-31T09:40:15;97638.15;;;10.90;66.98
62055;BME280;48653;51.742;-1.256;2023-03-31T09:42:35;97641.32;;;11.11;66.59
62055;BME280;48653;51.742;-1.256;2023-03-31T09:45:00;97641.76;;;11.44;66.04
62055;BME280;48653;51.742;-1.256;2023-03-31T09:47:31;97652.12;;;10.71;67.42
62055;BME280;48653;51.742;-1.256;2023-03-31T09:49:50;97658.08;;;10.90;66.43
62055;BME280;48653;51.742;-1.256;2023-03-31T09:52:24;97661.26;;;11.54;65.03
62055;BME280;48653;51.742;-1.256;2023-03-31T09:54:45;97669.43;;;11.65;64.28
62055;BME280;48653;51.742;-1.256;2023-03-31T09:57:14;97677.22;;;11.36;64.69
62055;BME280;48653;51.742;-1.256;2023-03-31T09:59:32;97676.99;;;12.01;64.30
62055;BME280;48653;51.742;-1.256;2023-03-31T10:01:57;97682.86;;;12.51;62.02
62055;BME280;48653;51.742;-1.256;2023-03-31T10:04:23;97696.95;;;12.92;61.39
62055;BME280;48653;51.742;-1.256;2023-03-31T10:06:45;97697.68;;;11.90;61.88
62055;BME280;48653;51.742;-1.256;2023-03-31T10:09:10;97700.80;;;11.56;61.94
62055;BME280;48653;51.742;-1.256;2023-03-31T10:11:36;97706.45;;;11.49;62.46
62055;BME280;48653;51.742;-1.256;2023-03-31T10:14:02;97707.18;;;12.00;62.00
62055;BME280;48653;51.742;-1.256;2023-03-31T10:16:30;97716.37;;;12.27;60.45
62055;BME280;48653;51.742;-1.256;2023-03-31T10:18:50;97717.65;;;12.85;60.87
62055;BME280;48653;51.742;-1.256;2023-03-31T10:21:20;97726.84;;;13.19;59.50
62055;BME280;48653;51.742;-1.256;2023-03-31T10:23:45;97729.02;;;13.04;59.00
62055;BME280;48653;51.742;-1.256;2023-03-31T10:26:06;97729.47;;;12.32;59.75
62055;BME280;48653;51.742;-1.256;2023-03-31T10:28:33;97736.79;;;12.13;60.65
62055;BME280;48653;51.742;-1.256;2023-03-31T10:30:57;97739.88;;;12.03;60.31
62055;BME280;48653;51.742;-1.256;2023-03-31T10:33:23;97749.61;;;12.34;61.10
62055;BME280;48653;51.742;-1.256;2023-03-31T10:35:47;97749.19;;;13.31;59.57
62055;BME280;48653;51.742;-1.256;2023-03-31T10:38:16;97753.55;;;12.58;59.16
62055;BME280;48653;51.742;-1.256;2023-03-31T10:40:37;97764.29;;;12.64;59.76
62055;BME280;48653;51.742;-1.256;2023-03-31T10:43:04;97776.50;;;12.31;60.73
62055;BME280;48653;51.742;-1.256;2023-03-31T10:45:28;97779.62;;;11.62;62.13
62055;BME280;48653;51.742;-1.256;2023-03-31T10:47:53;97785.02;;;11.78;62.19
62055;BME280;48653;51.742;-1.256;2023-03-31T10:50:16;97793.12;;;11.66;63.16
62055;BME280;48653;51.742;-1.256;2023-03-31T10:52:44;97797.89;;;11.46;63.83
62055;BME280;48653;51.742;-1.256;2023-03-31T10:55:12;97812.15;;;11.76;63.17
62055;BME280;48653;51.742;-1.256;2023-03-31T10:57:38;97812.79;;;10.65;65.39
62055;BME280;48653;51.742;-1.256;2023-03-31T11:00:05;97821.22;;;11.41;64.63
62055;BME280;48653;51.742;-1.256;2023-03-31T11:04:55;97834.03;;;11.86;63.34
62055;BME280;48653;51.742;-1.256;2023-03-31T11:07:22;97837.38;;;11.61;62.32
62055;BME280;48653;51.742;-1.256;2023-03-31T11:09:44;97848.37;;;11.41;63.40
62055;BME280;48653;51.742;-1.256;2023-03-31T11:12:07;97852.32;;;11.27;64.01
62055;BME280;48653;51.742;-1.256;2023-03-31T11:14:34;97857.06;;;11.20;62.89
62055;BME280;48653;51.742;-1.256;2023-03-31T11:16:55;97863.28;;;11.41;63.35
62055;BME280;48653;51.742;-1.256;2023-03-31T11:19:25;97864.07;;;11.98;62.28
62055;BME280;48653;51.742;-1.256;2023-03-31T11:21:52;97871.93;;;12.27;61.44
62055;BME280;48653;51.742;-1.256;2023-03-31T11:24:16;97875.87;;;12.34;60.96
62055;BME280;48653;51.742;-1.256;2023-03-31T11:26:40;97882.46;;;12.32;61.73
62055;BME280;48653;51.742;-1.256;2023-03-31T11:29:04;97883.61;;;12.43;59.96
62055;BME280;48653;51.742;-1.256;2023-03-31T11:31:30;97893.19;;;12.52;61.20
62055;BME280;48653;51.742;-1.256;2023-03-31T11:34:00;97892.97;;;12.37;58.60
62055;BME280;48653;51.742;-1.256;2023-03-31T11:36:27;97894.84;;;12.78;59.07
62055;BME280;48653;51.742;-1.256;2023-03-31T11:38:49;97895.58;;;12.52;57.86
62055;BME280;48653;51.742;-1.256;2023-03-31T11:41:04;97899.97;;;12.54;57.76
62055;BME280;48653;51.742;-1.256;2023-03-31T11:43:31;97907.58;;;12.46;58.99
62055;BME280;48653;51.742;-1.256;2023-03-31T11:45:55;97907.80;;;12.77;58.61
62055;BME280;48653;51.742;-1.256;2023-03-31T11:48:23;97916.68;;;12.52;58.22
62055;BME280;48653;51.742;-1.256;2023-03-31T11:50:44;97921.41;;;11.77;60.00
62055;BME280;48653;51.742;-1.256;2023-03-31T11:53:14;97924.14;;;12.36;59.37
62055;BME280;48653;51.742;-1.256;2023-03-31T11:55:34;97935.30;;;12.64;58.70
62055;BME280;48653;51.742;-1.256;2023-03-31T11:58:02;97939.83;;;12.21;59.92
62055;BME280;48653;51.742;-1.256;2023-03-31T12:00:26;97937.01;;;12.59;57.34
62055;BME280;48653;51.742;-1.256;2023-03-31T12:02:52;97943.72;;;12.80;58.92
62055;BME280;48653;51.742;-1.256;2023-03-31T12:05:15;97956.03;;;12.83;57.50
62055;BME280;48653;51.742;-1.256;2023-03-31T12:07:41;97955.14;;;11.87;61.41
62055;BME280;48653;51.742;-1.256;2023-03-31T12:10:12;97958.27;;;12.05;61.30
62055;BME280;48653;51.742;-1.256;2023-03-31T12:12:30;97958.97;;;11.91;62.18
62055;BME280;48653;51.742;-1.256;2023-03-31T12:14:56;97970.75;;;11.97;62.98
62055;BME280;48653;51.742;-1.256;2023-03-31T12:17:24;97983.51;;;10.89;63.72
62055;BME280;48653;51.742;-1.256;2023-03-31T12:19:47;97971.57;;;11.64;64.63
62055;BME280;48653;51.742;-1.256;2023-03-31T12:22:12;97967.34;;;11.76;63.59
62055;BME280;48653;51.742;-1.256;2023-03-31T12:24:35;97976.11;;;12.11;62.62
62055;BME280;48653;51.742;-1.256;2023-03-31T12:27:05;97987.71;;;12.17;62.45
62055;BME280;48653;51.742;-1.256;2023-03-31T12:29:29;97996.16;;;11.93;62.55
62055;BME280;48653;51.742;-1.256;2023-03-31T12:31:53;98022.47;;;11.07;63.92
62055;BME280;48653;51.742;-1.256;2023-03-31T12:34:18;98017.91;;;11.55;64.86
62055;BME280;48653;51.742;-1.256;2023-03-31T12:36:50;98014.27;;;11.90;63.07
62055;BME280;48653;51.742;-1.256;2023-03-31T12:39:21;98016.48;;;11.84;62.01
62055;BME280;48653;51.742;-1.256;2023-03-31T12:41:35;98018.35;;;10.89;63.82
62055;BME280;48653;51.742;-1.256;2023-03-31T12:44:07;98017.30;;;10.64;63.83
62055;BME280;48653;51.742;-1.256;2023-03-31T12:46:31;98020.47;;;11.08;64.23
62055;BME280;48653;51.742;-1.256;2023-03-31T12:48:57;98022.38;;;11.16;63.37
62055;BME280;48653;51.742;-1.256;2023-03-31T12:51:19;98021.45;;;10.98;63.93